sensor_id;sensor_type;location;lat;lon;timestamp;pressure;altitude;pressure_sealevel;temperature;humidity
4398;BME280;2213;49.720;7.296;2023-02-14T00:02:27;100001.63;;;2.01;100.00
4398;BME280;2213;49.720;7.296;2023-02-14T00:04:58;100003.97;;;2.06;100.00
4398;BME280;2213;49.720;7.296;2023-02-14T00:07:29;100007.22;;;2.10;100.00
4398;BME280;2213;49.720;7.296;2023-02-14T00:10:00;100003.97;;;2.06;100.00
4398;BME280;2213;49.720;7.296;2023-02-14T00:12:29;100000.97;;;1.98;100.00
4398;BME280;2213;49.720;7.296;2023-02-14T00:14:59;100003.47;;;1.99;100.00
4398;BME280;2213;49.720;7.296;2023-02-14T00:17:46;100000.16;;;1.97;100.00
4398;BME280;2213;49.720;7.296;2023-02-14T00:20:16;100004.56;;;1.95;100.00
4398;BME280;2213;49.720;7.296;2023-02-14T00:22:47;100000.91;;;1.99;100.00
4398;BME280;2213;49.720;7.296;2023-02-14T00:25:19;99997.66;;;1.96;100.00
4398;BME280;2213;49.720;7.296;2023-02-14T00:27:48;99994.91;;;1.99;100.00
4398;BME280;2213;49.720;7.296;2023-02-14T00:30:19;99993.09;;;2.01;100.00
4398;BME280;2213;49.720;7.296;2023-02-14T00:32:48;99996.75;;;1.97;100.00
4398;BME280;2213;49.720;7.296;2023-02-14T00:35:18;99988.00;;;1.99;100.00
4398;BME280;2213;49.720;7.296;2023-02-14T00:37:48;99992.50;;;1.96;100.00
4398;BME280;2213;49.720;7.296;2023-02-14T00:40:20;99986.19;;;1.86;100.00
4398;BME280;2213;49.720;7.296;2023-02-14T00:42:50;99988.94;;;1.83;100.00
4398;BME280;2213;49.720;7.296;2023-02-14T00:45:21;99984.84;;;1.79;100.00
4398;BME280;2213;49.720;7.296;2023-02-14T00:47:51;99984.38;;;1.72;100.00
4398;BME280;2213;49.720;7.296;2023-02-14T00:50:20;99990.84;;;1.64;100.00
4398;BME280;2213;49.720;7.296;2023-02-14T00:52:50;99987.53;;;1.62;100.00
4398;BME280;2213;49.720;7.296;2023-02-14T00:55:20;99988.44;;;1.61;100.00
4398;BME280;2213;49.720;7.296;2023-02-14T00:57:50;99983.19;;;1.62;100.00
4398;BME280;2213;49.720;7.296;2023-02-14T01:00:22;99978.94;;;1.61;100.00
4398;BME280;2213;49.720;7.296;2023-02-14T01:02:53;99984.22;;;1.60;100.00
4398;BME280;2213;49.720;7.296;2023-02-14T01:05:22;99987.34;;;1.65;100.00
4398;BME280;2213;49.720;7.296;2023-02-14T01:07:52;99984.22;;;1.60;100.00
4398;BME280;2213;49.720;7.296;2023-02-14T01:10:24;99992.06;;;1.57;100.00
4398;BME280;2213;49.720;7.296;2023-02-14T01:12:54;99987.50;;;1.46;100.00
4398;BME280;2213;49.720;7.296;2023-02-14T01:15:24;99993.91;;;1.55;100.00
4398;BME280;2213;49.720;7.296;2023-02-14T01:17:53;99998.75;;;1.61;100.00
4398;BME280;2213;49.720;7.296;2023-02-14T01:20:23;99997.44;;;1.69;100.00
4398;BME280;2213;49.720;7.296;2023-02-14T01:22:52;99998.56;;;1.64;100.00
4398;BME280;2213;49.720;7.296;2023-02-14T01:25:24;100005.41;;;1.65;100.00
4398;BME280;2213;49.720;7.296;2023-02-14T01:27:54;99998.16;;;1.56;100.00
4398;BME280;2213;49.720;7.296;2023-02-14T01:30:24;100000.25;;;1.49;100.00
4398;BME280;2213;49.720;7.296;2023-02-14T01:32:53;99999.25;;;1.51;100.00
4398;BME280;2213;49.720;7.296;2023-02-14T01:35:24;99995.75;;;1.52;100.00
4398;BME280;2213;49.720;7.296;2023-02-14T01:37:53;99992.50;;;1.49;100.00
4398;BME280;2213;49.720;7.296;2023-02-14T01:40:25;99990.34;;;1.41;100.00
4398;BME280;2213;49.720;7.296;2023-02-14T01:42:55;99995.41;;;1.43;100.00
4398;BME280;2213;49.720;7.296;2023-02-14T01:45:26;99996.16;;;1.45;100.00
4398;BME280;2213;49.720;7.296;2023-02-14T01:47:57;99993.09;;;1.38;100.00
4398;BME280;2213;49.720;7.296;2023-02-14T01:50:33;99996.91;;;1.31;100.00
4398;BME280;2213;49.720;7.296;2023-02-14T01:53:08;99997.97;;;1.27;100.00
4398;BME280;2213;49.720;7.296;2023-02-14T01:55:45;99995.00;;;1.35;100.00
4398;BME280;2213;49.720;7.296;2023-02-14T01:58:20;99986.59;;;1.31;100.00
4398;BME280;2213;49.720;7.296;2023-02-14T02:00:52;99989.00;;;1.34;100.00
4398;BME280;2213;49.720;7.296;2023-02-14T02:03:31;99985.25;;;1.40;100.00
4398;BME280;2213;49.720;7.296;2023-02-14T02:06:10;99980.31;;;1.20;100.00
4398;BME280;2213;49.720;7.296;2023-02-14T02:08:51;99977.00;;;1.18;100.00
4398;BME280;2213;49.720;7.296;2023-02-14T02:11:26;99982.00;;;1.21;100.00
4398;BME280;2213;49.720;7.296;2023-02-14T02:13:56;99983.63;;;1.22;100.00
4398;BME280;2213;49.720;7.296;2023-02-14T02:16:45;99979.31;;;1.22;100.00
4398;BME280;2213;49.720;7.296;2023-02-14T02:23:37;99978.34;;;1.25;100.00
4398;BME280;2213;49.720;7.296;2023-02-14T02:30:29;99976.47;;;1.11;100.00
4398;BME280;2213;49.720;7.296;2023-02-14T02:36:58;99961.69;;;1.15;100.00
4398;BME280;2213;49.720;7.296;2023-02-14T02:39:48;99965.53;;;1.08;100.00
4398;BME280;2213;49.720;7.296;2023-02-14T02:42:37;99956.19;;;1.05;100.00
4398;BME280;2213;49.720;7.296;2023-02-14T02:45:23;99959.69;;;1.04;100.00
4398;BME280;2213;49.720;7.296;2023-02-14T02:48:05;99955.34;;;1.05;100.00
4398;BME280;2213;49.720;7.296;2023-02-14T02:50:41;99960.44;;;1.06;100.00
4398;BME280;2213;49.720;7.296;2023-02-14T02:53:33;99955.63;;;1.00;100.00
4398;BME280;2213;49.720;7.296;2023-02-14T02:56:13;99957.53;;;0.96;100.00
4398;BME280;2213;49.720;7.296;2023-02-14T02:59:09;99954.19;;;0.94;100.00
4398;BME280;2213;49.720;7.296;2023-02-14T03:01:52;99950.47;;;1.00;100.00
4398;BME280;2213;49.720;7.296;2023-02-14T03:04:23;99961.84;;;0.96;100.00
4398;BME280;2213;49.720;7.296;2023-02-14T03:07:12;99957.34;;;0.99;100.00
4398;BME280;2213;49.720;7.296;2023-02-14T03:10:06;99970.31;;;0.98;100.00
4398;BME280;2213;49.720;7.296;2023-02-14T03:13:26;99967.72;;;0.98;100.00
4398;BME280;2213;49.720;7.296;2023-02-14T03:16:41;99972.19;;;0.94;100.00
4398;BME280;2213;49.720;7.296;2023-02-14T03:22:49;99968.94;;;0.91;100.00
4398;BME280;2213;49.720;7.296;2023-02-14T03:25:44;99961.22;;;0.91;100.00
4398;BME280;2213;49.720;7.296;2023-02-14T03:28:21;99962.72;;;0.95;100.00
4398;BME280;2213;49.720;7.296;2023-02-14T03:31:01;99967.59;;;0.84;100.00
4398;BME280;2213;49.720;7.296;2023-02-14T03:33:42;99969.06;;;0.89;100.00
4398;BME280;2213;49.720;7.296;2023-02-14T03:36:18;99968.13;;;0.90;100.00
4398;BME280;2213;49.720;7.296;2023-02-14T03:38:56;99971.28;;;0.80;100.00
4398;BME280;2213;49.720;7.296;2023-02-14T03:41:36;99970.03;;;0.70;100.00
4398;BME280;2213;49.720;7.296;2023-02-14T03:44:10;99968.31;;;0.70;100.00
4398;BME280;2213;49.720;7.296;2023-02-14T03:46:47;99965.56;;;0.73;100.00
4398;BME280;2213;49.720;7.296;2023-02-14T03:49:27;99966.56;;;0.71;100.00
4398;BME280;2213;49.720;7.296;2023-02-14T03:52:00;99960.06;;;0.64;100.00
4398;BME280;2213;49.720;7.296;2023-02-14T03:54:33;99964.16;;;0.68;100.00
4398;BME280;2213;49.720;7.296;2023-02-14T03:57:13;99965.22;;;0.64;100.00
4398;BME280;2213;49.720;7.296;2023-02-14T03:59:46;99966.06;;;0.64;100.00
4398;BME280;2213;49.720;7.296;2023-02-14T04:02:23;99969.13;;;0.71;100.00
4398;BME280;2213;49.720;7.296;2023-02-14T04:04:57;99971.88;;;0.68;100.00
4398;BME280;2213;49.720;7.296;2023-02-14T04:07:28;99973.00;;;0.79;100.00
4398;BME280;2213;49.720;7.296;2023-02-14T04:09:58;99974.06;;;0.75;100.00
4398;BME280;2213;49.720;7.296;2023-02-14T04:12:30;99972.91;;;0.81;100.00
4398;BME280;2213;49.720;7.296;2023-02-14T04:15:08;99970.94;;;0.86;100.00
4398;BME280;2213;49.720;7.296;2023-02-14T04:17:38;99974.25;;;0.88;100.00
4398;BME280;2213;49.720;7.296;2023-02-14T04:20:25;99977.91;;;0.84;100.00
4398;BME280;2213;49.720;7.296;2023-02-14T04:22:54;99979.56;;;0.85;100.00
4398;BME280;2213;49.720;7.296;2023-02-14T04:25:25;99979.50;;;0.86;100.00
4398;BME280;2213;49.720;7.296;2023-02-14T04:27:56;99983.66;;;0.89;100.00
4398;BME280;2213;49.720;7.296;2023-02-14T04:30:26;99987.13;;;0.88;100.00
4398;BME280;2213;49.720;7.296;2023-02-14T04:32:55;99979.50;;;0.86;100.00
4398;BME280;2213;49.720;7.296;2023-02-14T04:35:26;99979.56;;;0.85;100.00
4398;BME280;2213;49.720;7.296;2023-02-14T04:37:56;99979.56;;;0.85;100.00
4398;BME280;2213;49.720;7.296;2023-02-14T04:40:26;99982.00;;;0.88;100.00
4398;BME280;2213;49.720;7.296;2023-02-14T04:42:58;99981.25;;;0.86;100.00
4398;BME280;2213;49.720;7.296;2023-02-14T04:45:28;99986.31;;;0.87;100.00
4398;BME280;2213;49.720;7.296;2023-02-14T04:47:57;99979.72;;;0.82;100.00
4398;BME280;2213;49.720;7.296;2023-02-14T04:50:27;99982.22;;;0.83;100.00
4398;BME280;2213;49.720;7.296;2023-02-14T04:52:56;99977.75;;;0.87;100.00
4398;BME280;2213;49.720;7.296;2023-02-14T04:55:25;99975.94;;;0.89;100.00
4398;BME280;2213;49.720;7.296;2023-02-14T04:57:57;99975.78;;;0.92;100.00
4398;BME280;2213;49.720;7.296;2023-02-14T05:00:27;99972.47;;;0.90;100.00
4398;BME280;2213;49.720;7.296;2023-02-14T05:02:57;99961.38;;;0.88;100.00
4398;BME280;2213;49.720;7.296;2023-02-14T05:05:27;99959.72;;;0.87;100.00
4398;BME280;2213;49.720;7.296;2023-02-14T05:07:58;99959.81;;;0.85;100.00
4398;BME280;2213;49.720;7.296;2023-02-14T05:10:26;99964.88;;;0.87;100.00
4398;BME280;2213;49.720;7.296;2023-02-14T05:12:57;99960.31;;;0.92;100.00
4398;BME280;2213;49.720;7.296;2023-02-14T05:15:27;99963.81;;;0.91;100.00
4398;BME280;2213;49.720;7.296;2023-02-14T05:17:56;99959.25;;;0.96;100.00
4398;BME280;2213;49.720;7.296;2023-02-14T05:20:29;99955.69;;;0.98;100.00
4398;BME280;2213;49.720;7.296;2023-02-14T05:22:59;99960.66;;;1.01;100.00
4398;BME280;2213;49.720;7.296;2023-02-14T05:25:31;99959.94;;;0.99;100.00
4398;BME280;2213;49.720;7.296;2023-02-14T05:28:04;99970.13;;;1.01;100.00
4398;BME280;2213;49.720;7.296;2023-02-14T05:30:35;99965.59;;;1.06;100.00
4398;BME280;2213;49.720;7.296;2023-02-14T05:33:06;99959.53;;;1.07;100.00
4398;BME280;2213;49.720;7.296;2023-02-14T05:35:35;99958.03;;;1.03;100.00
4398;BME280;2213;49.720;7.296;2023-02-14T05:38:05;99965.81;;;1.01;100.00
4398;BME280;2213;49.720;7.296;2023-02-14T05:40:34;99966.34;;;1.08;100.00
4398;BME280;2213;49.720;7.296;2023-02-14T05:43:06;99962.63;;;1.14;100.00
4398;BME280;2213;49.720;7.296;2023-02-14T05:45:36;99959.94;;;1.15;100.00
4398;BME280;2213;49.720;7.296;2023-02-14T05:48:06;99961.47;;;1.19;100.00
4398;BME280;2213;49.720;7.296;2023-02-14T05:50:36;99963.03;;;1.22;100.00
4398;BME280;2213;49.720;7.296;2023-02-14T05:53:06;99966.44;;;1.22;100.00
4398;BME280;2213;49.720;7.296;2023-02-14T05:55:37;99960.72;;;1.17;100.00
4398;BME280;2213;49.720;7.296;2023-02-14T05:58:08;99968.34;;;1.19;100.00
4398;BME280;2213;49.720;7.296;2023-02-14T06:00:40;99963.03;;;1.22;100.00
4398;BME280;2213;49.720;7.296;2023-02-14T06:03:10;99965.38;;;1.26;100.00
4398;BME280;2213;49.720;7.296;2023-02-14T06:05:41;99967.78;;;1.29;100.00
4398;BME280;2213;49.720;7.296;2023-02-14T06:08:11;99972.94;;;1.29;100.00
4398;BME280;2213;49.720;7.296;2023-02-14T06:10:40;99968.56;;;1.31;100.00
4398;BME280;2213;49.720;7.296;2023-02-14T06:13:14;99964.38;;;1.29;100.00
4398;BME280;2213;49.720;7.296;2023-02-14T06:15:44;99971.19;;;1.30;100.00
4398;BME280;2213;49.720;7.296;2023-02-14T06:18:14;99978.75;;;1.33;100.00
4398;BME280;2213;49.720;7.296;2023-02-14T06:20:43;99970.28;;;1.31;100.00
4398;BME280;2213;49.720;7.296;2023-02-14T06:23:12;99974.44;;;1.33;100.00
4398;BME280;2213;49.720;7.296;2023-02-14T06:25:41;99977.03;;;1.33;100.00
4398;BME280;2213;49.720;7.296;2023-02-14T06:28:13;99976.00;;;1.36;100.00
4398;BME280;2213;49.720;7.296;2023-02-14T06:30:44;99981.09;;;1.37;100.00
4398;BME280;2213;49.720;7.296;2023-02-14T06:33:14;99984.59;;;1.36;100.00
4398;BME280;2213;49.720;7.296;2023-02-14T06:35:44;99983.69;;;1.37;100.00
4398;BME280;2213;49.720;7.296;2023-02-14T06:38:13;99978.59;;;1.36;100.00
4398;BME280;2213;49.720;7.296;2023-02-14T06:40:43;99989.00;;;1.34;100.00
4398;BME280;2213;49.720;7.296;2023-02-14T06:43:14;99978.59;;;1.36;100.00
4398;BME280;2213;49.720;7.296;2023-02-14T06:45:45;99982.00;;;1.36;100.00
4398;BME280;2213;49.720;7.296;2023-02-14T06:48:14;99987.00;;;1.39;100.00
4398;BME280;2213;49.720;7.296;2023-02-14T06:50:46;99976.53;;;1.42;100.00
4398;BME280;2213;49.720;7.296;2023-02-14T06:53:15;99984.13;;;1.45;100.00
4398;BME280;2213;49.720;7.296;2023-02-14T06:55:45;99979.88;;;1.44;100.00
4398;BME280;2213;49.720;7.296;2023-02-14T06:58:16;99978.19;;;1.43;100.00
4398;BME280;2213;49.720;7.296;2023-02-14T07:00:46;99976.53;;;1.42;100.00
4398;BME280;2213;49.720;7.296;2023-02-14T07:03:16;99978.19;;;1.43;100.00
4398;BME280;2213;49.720;7.296;2023-02-14T07:05:46;99975.84;;;1.39;100.00
4398;BME280;2213;49.720;7.296;2023-02-14T07:08:16;99978.94;;;1.30;100.00
4398;BME280;2213;49.720;7.296;2023-02-14T07:10:47;99978.34;;;1.25;100.00
4398;BME280;2213;49.720;7.296;2023-02-14T07:13:19;99981.00;;;1.23;100.00
4398;BME280;2213;49.720;7.296;2023-02-14T07:15:49;99979.16;;;1.25;100.00
4398;BME280;2213;49.720;7.296;2023-02-14T07:18:19;99982.84;;;1.21;100.00
4398;BME280;2213;49.720;7.296;2023-02-14T07:20:49;99985.47;;;1.20;100.00
4398;BME280;2213;49.720;7.296;2023-02-14T07:23:20;99985.31;;;1.23;100.00
4398;BME280;2213;49.720;7.296;2023-02-14T07:25:49;99982.91;;;1.20;100.00
4398;BME280;2213;49.720;7.296;2023-02-14T07:28:20;99981.78;;;1.08;100.00
4398;BME280;2213;49.720;7.296;2023-02-14T07:30:50;99979.03;;;1.11;100.00
4398;BME280;2213;49.720;7.296;2023-02-14T07:33:21;99979.66;;;1.16;100.00
4398;BME280;2213;49.720;7.296;2023-02-14T07:35:52;99978.66;;;1.19;100.00
4398;BME280;2213;49.720;7.296;2023-02-14T07:38:21;99975.84;;;1.23;100.00
4398;BME280;2213;49.720;7.296;2023-02-14T07:40:53;99980.09;;;1.24;100.00
4398;BME280;2213;49.720;7.296;2023-02-14T07:43:25;99979.03;;;1.28;100.00
4398;BME280;2213;49.720;7.296;2023-02-14T07:45:54;99977.13;;;1.32;100.00
4398;BME280;2213;49.720;7.296;2023-02-14T07:48:24;99980.25;;;1.37;100.00
4398;BME280;2213;49.720;7.296;2023-02-14T07:50:56;99982.69;;;1.40;100.00
4398;BME280;2213;49.720;7.296;2023-02-14T07:53:28;99975.63;;;1.43;100.00
4398;BME280;2213;49.720;7.296;2023-02-14T07:55:57;99976.44;;;1.44;100.00
4398;BME280;2213;49.720;7.296;2023-02-14T07:58:28;99981.53;;;1.45;100.00
4398;BME280;2213;49.720;7.296;2023-02-14T08:00:59;99982.28;;;1.47;100.00
4398;BME280;2213;49.720;7.296;2023-02-14T08:03:29;99984.84;;;1.47;100.00
4398;BME280;2213;49.720;7.296;2023-02-14T08:06:00;99984.69;;;1.50;100.00
4398;BME280;2213;49.720;7.296;2023-02-14T08:08:31;99989.78;;;1.52;100.00
4398;BME280;2213;49.720;7.296;2023-02-14T08:11:00;99997.34;;;1.55;100.00
4398;BME280;2213;49.720;7.296;2023-02-14T08:13:31;99989.84;;;1.50;100.00
4398;BME280;2213;49.720;7.296;2023-02-14T08:16:02;99982.69;;;1.56;100.00
4398;BME280;2213;49.720;7.296;2023-02-14T08:18:38;99977.72;;;1.52;100.00
4398;BME280;2213;49.720;7.296;2023-02-14T08:21:09;99980.13;;;1.56;100.00
4398;BME280;2213;49.720;7.296;2023-02-14T08:23:39;99981.78;;;1.57;100.00
4398;BME280;2213;49.720;7.296;2023-02-14T08:26:09;99985.94;;;1.59;100.00
4398;BME280;2213;49.720;7.296;2023-02-14T08:28:41;99985.84;;;1.61;100.00
4398;BME280;2213;49.720;7.296;2023-02-14T08:31:10;99981.53;;;1.61;100.00
4398;BME280;2213;49.720;7.296;2023-02-14T08:33:42;99977.03;;;1.65;100.00
4398;BME280;2213;49.720;7.296;2023-02-14T08:36:13;99979.72;;;1.63;100.00
4398;BME280;2213;49.720;7.296;2023-02-14T08:38:45;99976.13;;;1.66;100.00
4398;BME280;2213;49.720;7.296;2023-02-14T08:41:15;99976.97;;;1.66;100.00
4398;BME280;2213;49.720;7.296;2023-02-14T08:43:48;99971.72;;;1.68;100.00
4398;BME280;2213;49.720;7.296;2023-02-14T08:46:18;99985.38;;;1.70;100.00
4398;BME280;2213;49.720;7.296;2023-02-14T08:48:48;99981.19;;;1.67;100.00
4398;BME280;2213;49.720;7.296;2023-02-14T08:51:18;99986.84;;;1.74;100.00
4398;BME280;2213;49.720;7.296;2023-02-14T08:53:49;99987.50;;;1.77;100.00
4398;BME280;2213;49.720;7.296;2023-02-14T08:56:19;99982.28;;;1.79;100.00
4398;BME280;2213;49.720;7.296;2023-02-14T08:58:53;99989.84;;;1.82;100.00
4398;BME280;2213;49.720;7.296;2023-02-14T09:01:23;99993.50;;;1.78;100.00
4398;BME280;2213;49.720;7.296;2023-02-14T09:03:53;99981.84;;;1.71;100.00
4398;BME280;2213;49.720;7.296;2023-02-14T09:06:23;99985.94;;;1.75;100.00
4398;BME280;2213;49.720;7.296;2023-02-14T09:08:53;99985.69;;;1.79;100.00
4398;BME280;2213;49.720;7.296;2023-02-14T09:11:24;99983.47;;;1.73;100.00
4398;BME280;2213;49.720;7.296;2023-02-14T09:13:55;99983.69;;;1.69;100.00
4398;BME280;2213;49.720;7.296;2023-02-14T09:16:25;99990.91;;;1.78;100.00
4398;BME280;2213;49.720;7.296;2023-02-14T09:18:55;99982.03;;;1.83;100.00
4398;BME280;2213;49.720;7.296;2023-02-14T09:21:27;99977.44;;;1.88;100.00
4398;BME280;2213;49.720;7.296;2023-02-14T09:23:58;99975.53;;;1.92;100.00
4398;BME280;2213;49.720;7.296;2023-02-14T09:26:28;99976.28;;;1.94;100.00
4398;BME280;2213;49.720;7.296;2023-02-14T09:28:59;99978.59;;;1.98;100.00
4398;BME280;2213;49.720;7.296;2023-02-14T09:31:28;99984.34;;;2.03;100.00
4398;BME280;2213;49.720;7.296;2023-02-14T09:33:59;99975.59;;;2.06;100.00
4398;BME280;2213;49.720;7.296;2023-02-14T09:36:29;99982.97;;;2.12;100.00
4398;BME280;2213;49.720;7.296;2023-02-14T09:39:17;99973.06;;;2.20;100.00
4398;BME280;2213;49.720;7.296;2023-02-14T09:42:40;99976.38;;;2.22;100.00
4398;BME280;2213;49.720;7.296;2023-02-14T09:45:18;99971.97;;;2.24;100.00
4398;BME280;2213;49.720;7.296;2023-02-14T09:47:54;99969.94;;;2.29;100.00
4398;BME280;2213;49.720;7.296;2023-02-14T09:50:32;99957.63;;;2.34;100.00
4398;BME280;2213;49.720;7.296;2023-02-14T09:53:15;99960.69;;;2.41;100.00
4398;BME280;2213;49.720;7.296;2023-02-14T09:55:54;99954.44;;;2.45;100.00
4398;BME280;2213;49.720;7.296;2023-02-14T09:58:34;99954.31;;;2.46;100.00
4398;BME280;2213;49.720;7.296;2023-02-14T10:01:16;99950.66;;;2.50;100.00
4398;BME280;2213;49.720;7.296;2023-02-14T10:04:20;99951.50;;;2.51;100.00
4398;BME280;2213;49.720;7.296;2023-02-14T10:07:01;99951.13;;;2.57;100.00
4398;BME280;2213;49.720;7.296;2023-02-14T10:10:02;99943.22;;;2.60;100.00
4398;BME280;2213;49.720;7.296;2023-02-14T10:12:40;99944.59;;;2.66;100.00
4398;BME280;2213;49.720;7.296;2023-02-14T10:15:16;99940.91;;;2.70;100.00
4398;BME280;2213;49.720;7.296;2023-02-14T10:17:54;99932.81;;;2.76;100.00
4398;BME280;2213;49.720;7.296;2023-02-14T10:20:31;99939.44;;;2.80;100.00
4398;BME280;2213;49.720;7.296;2023-02-14T10:23:21;99934.81;;;2.85;100.00
4398;BME280;2213;49.720;7.296;2023-02-14T10:25:59;99937.25;;;2.88;100.00
4398;BME280;2213;49.720;7.296;2023-02-14T10:28:36;99939.47;;;2.94;100.00
4398;BME280;2213;49.720;7.296;2023-02-14T10:31:19;99934.81;;;2.99;100.00
4398;BME280;2213;49.720;7.296;2023-02-14T10:33:55;99934.63;;;3.02;100.00
4398;BME280;2213;49.720;7.296;2023-02-14T10:36:38;99931.06;;;3.04;100.00
4398;BME280;2213;49.720;7.296;2023-02-14T10:39:29;99930.94;;;3.06;100.00
4398;BME280;2213;49.720;7.296;2023-02-14T10:42:11;99928.19;;;3.09;100.00
4398;BME280;2213;49.720;7.296;2023-02-14T10:44:54;99925.25;;;3.15;100.00
4398;BME280;2213;49.720;7.296;2023-02-14T10:47:40;99917.19;;;3.20;100.00
4398;BME280;2213;49.720;7.296;2023-02-14T10:50:21;99923.63;;;3.27;100.00
4398;BME280;2213;49.720;7.296;2023-02-14T10:53:03;99918.28;;;3.30;100.00
4398;BME280;2213;49.720;7.296;2023-02-14T10:55:45;99920.59;;;3.34;100.00
4398;BME280;2213;49.720;7.296;2023-02-14T10:58:21;99914.38;;;3.37;100.00
4398;BME280;2213;49.720;7.296;2023-02-14T11:01:00;99913.19;;;3.42;100.00
4398;BME280;2213;49.720;7.296;2023-02-14T11:03:31;99914.47;;;3.49;100.00
4398;BME280;2213;49.720;7.296;2023-02-14T11:06:04;99903.94;;;3.52;100.00
4398;BME280;2213;49.720;7.296;2023-02-14T11:08:37;99902.81;;;3.57;100.00
4398;BME280;2213;49.720;7.296;2023-02-14T11:11:16;99899.19;;;3.59;100.00
4398;BME280;2213;49.720;7.296;2023-02-14T11:13:46;99893.19;;;3.59;100.00
4398;BME280;2213;49.720;7.296;2023-02-14T11:16:28;99897.97;;;3.65;100.00
4398;BME280;2213;49.720;7.296;2023-02-14T11:19:18;99891.66;;;3.69;100.00
4398;BME280;2213;49.720;7.296;2023-02-14T11:21:52;99893.97;;;3.73;100.00
4398;BME280;2213;49.720;7.296;2023-02-14T11:24:30;99880.84;;;3.76;100.00
4398;BME280;2213;49.720;7.296;2023-02-14T11:27:03;99886.84;;;3.77;100.00
4398;BME280;2213;49.720;7.296;2023-02-14T11:29:41;99884.97;;;3.79;100.00
4398;BME280;2213;49.720;7.296;2023-02-14T11:32:15;99880.63;;;3.79;100.00
4398;BME280;2213;49.720;7.296;2023-02-14T11:34:54;99878.69;;;3.83;100.00
4398;BME280;2213;49.720;7.296;2023-02-14T11:37:31;99871.97;;;3.80;100.00
4398;BME280;2213;49.720;7.296;2023-02-14T11:40:06;99871.25;;;3.78;100.00
4398;BME280;2213;49.720;7.296;2023-02-14T11:42:42;99873.81;;;3.78;100.00
4398;BME280;2213;49.720;7.296;2023-02-14T11:45:30;99865.94;;;3.80;100.00
4398;BME280;2213;49.720;7.296;2023-02-14T11:48:18;99861.41;;;3.83;100.00
4398;BME280;2213;49.720;7.296;2023-02-14T11:51:07;99857.97;;;3.83;100.00
4398;BME280;2213;49.720;7.296;2023-02-14T11:53:49;99852.72;;;3.84;100.00
4398;BME280;2213;49.720;7.296;2023-02-14T11:56:21;99853.56;;;3.85;100.00
4398;BME280;2213;49.720;7.296;2023-02-14T11:58:56;99844.00;;;3.85;100.00
4398;BME280;2213;49.720;7.296;2023-02-14T12:01:30;99843.94;;;3.87;100.00
4398;BME280;2213;49.720;7.296;2023-02-14T12:04:05;99836.06;;;3.88;100.00
4398;BME280;2213;49.720;7.296;2023-02-14T12:06:35;99833.16;;;3.93;100.00
4398;BME280;2213;49.720;7.296;2023-02-14T12:09:26;99835.47;;;3.97;100.00
4398;BME280;2213;49.720;7.296;2023-02-14T12:11:58;99818.81;;;4.01;100.00
4398;BME280;2213;49.720;7.296;2023-02-14T12:14:30;99820.25;;;4.05;100.00
4398;BME280;2213;49.720;7.296;2023-02-14T12:17:06;99806.06;;;4.11;100.00
4398;BME280;2213;49.720;7.296;2023-02-14T12:19:49;99802.22;;;4.17;100.00
4398;BME280;2213;49.720;7.296;2023-02-14T12:22:21;99802.06;;;4.20;100.00
4398;BME280;2213;49.720;7.296;2023-02-14T12:25:04;99799.13;;;4.24;100.00
4398;BME280;2213;49.720;7.296;2023-02-14T12:27:46;99789.72;;;4.23;100.00
4398;BME280;2213;49.720;7.296;2023-02-14T12:30:20;99787.94;;;4.24;100.00
4398;BME280;2213;49.720;7.296;2023-02-14T12:32:51;99789.31;;;4.29;100.00
4398;BME280;2213;49.720;7.296;2023-02-14T12:35:41;99783.19;;;4.30;100.00
4398;BME280;2213;49.720;7.296;2023-02-14T12:38:24;99786.28;;;4.35;100.00
4398;BME280;2213;49.720;7.296;2023-02-14T12:41:15;99786.06;;;4.38;100.00
4398;BME280;2213;49.720;7.296;2023-02-14T12:43:53;99784.22;;;4.40;100.00
4398;BME280;2213;49.720;7.296;2023-02-14T12:53:26;99763.09;;;4.46;100.00
4398;BME280;2213;49.720;7.296;2023-02-14T12:56:12;99765.38;;;4.51;100.00
4398;BME280;2213;49.720;7.296;2023-02-14T12:58:54;99758.09;;;4.56;100.00
4398;BME280;2213;49.720;7.296;2023-02-14T13:05:00;99753.06;;;4.66;100.00
4398;BME280;2213;49.720;7.296;2023-02-14T13:07:54;99747.69;;;4.69;100.00
4398;BME280;2213;49.720;7.296;2023-02-14T13:10:46;99746.31;;;4.76;100.00
4398;BME280;2213;49.720;7.296;2023-02-14T13:13:32;99739.88;;;4.81;100.00
4398;BME280;2213;49.720;7.296;2023-02-14T13:16:14;99745.69;;;4.85;100.00
4398;BME280;2213;49.720;7.296;2023-02-14T13:18:54;99737.06;;;4.84;100.00
4398;BME280;2213;49.720;7.296;2023-02-14T13:21:31;99729.81;;;4.89;100.00
4398;BME280;2213;49.720;7.296;2023-02-14T13:24:15;99729.59;;;4.92;100.00
4398;BME280;2213;49.720;7.296;2023-02-14T13:26:51;99720.25;;;4.90;100.00
4398;BME280;2213;49.720;7.296;2023-02-14T13:29:26;99721.09;;;4.90;100.00
4398;BME280;2213;49.720;7.296;2023-02-14T13:32:00;99717.56;;;4.91;100.00
4398;BME280;2213;49.720;7.296;2023-02-14T13:34:34;99726.88;;;4.94;100.00
4398;BME280;2213;49.720;7.296;2023-02-14T13:37:11;99715.56;;;4.95;100.00
4398;BME280;2213;49.720;7.296;2023-02-14T13:39:45;99714.13;;;4.91;100.00
4398;BME280;2213;49.720;7.296;2023-02-14T13:42:50;99710.38;;;4.95;100.00
4398;BME280;2213;49.720;7.296;2023-02-14T13:46:03;99710.38;;;4.95;100.00
4398;BME280;2213;49.720;7.296;2023-02-14T13:48:34;99707.56;;;4.98;100.00
4398;BME280;2213;49.720;7.296;2023-02-14T13:51:09;99709.09;;;5.00;100.00
4398;BME280;2213;49.720;7.296;2023-02-14T13:53:42;99709.00;;;5.02;100.00
4398;BME280;2213;49.720;7.296;2023-02-14T13:56:32;99706.19;;;5.05;100.00
4398;BME280;2213;49.720;7.296;2023-02-14T13:59:05;99706.91;;;5.07;100.00
4398;BME280;2213;49.720;7.296;2023-02-14T14:01:39;99694.66;;;5.09;100.00
4398;BME280;2213;49.720;7.296;2023-02-14T14:04:34;99697.75;;;5.14;100.00
4398;BME280;2213;49.720;7.296;2023-02-14T14:07:20;99698.47;;;5.16;100.00
4398;BME280;2213;49.720;7.296;2023-02-14T14:10:05;99699.16;;;5.18;100.00
4398;BME280;2213;49.720;7.296;2023-02-14T14:12:40;99702.50;;;5.20;100.00
4398;BME280;2213;49.720;7.296;2023-02-14T14:15:17;99702.72;;;5.17;100.00
4398;BME280;2213;49.720;7.296;2023-02-14T14:18:36;99704.13;;;5.21;100.00
4398;BME280;2213;49.720;7.296;2023-02-14T14:21:14;99705.78;;;5.22;100.00
4398;BME280;2213;49.720;7.296;2023-02-14T14:24:11;99704.72;;;5.25;100.00
4398;BME280;2213;49.720;7.296;2023-02-14T14:26:46;99703.44;;;5.19;100.00
4398;BME280;2213;49.720;7.296;2023-02-14T14:29:23;99700.13;;;5.17;100.00
4398;BME280;2213;49.720;7.296;2023-02-14T14:31:54;99706.94;;;5.18;100.00
4398;BME280;2213;49.720;7.296;2023-02-14T14:34:27;99701.38;;;5.12;100.00